createdAt,value
2023-03-14T00:01:15.491Z,32.05
2023-03-14T00:03:42.510Z,25.13
2023-03-14T00:06:10.084Z,29.25
2023-03-14T00:08:37.592Z,28.63
2023-03-14T00:11:15.930Z,30.85
2023-03-14T00:13:42.464Z,14.80
2023-03-14T00:16:12.104Z,11.80
2023-03-14T00:18:39.513Z,3.88
2023-03-14T00:21:08.081Z,4.63
2023-03-14T00:23:36.650Z,5.68
2023-03-14T00:26:06.077Z,4.78
2023-03-14T00:28:32.982Z,5.13
2023-03-14T00:30:59.535Z,5.22
2023-03-14T00:33:26.018Z,3.08
2023-03-14T00:36:01.185Z,3.15
2023-03-14T00:38:30.807Z,2.03
2023-03-14T00:40:58.172Z,2.38
2023-03-14T00:43:25.193Z,1.80
2023-03-14T00:45:53.111Z,3.05
2023-03-14T00:48:20.664Z,2.65
2023-03-14T00:50:47.801Z,2.38
2023-03-14T00:53:15.718Z,2.78
2023-03-14T00:55:43.670Z,3.72
2023-03-14T00:58:11.704Z,5.70
2023-03-14T01:00:38.845Z,3.72
2023-03-14T01:03:06.315Z,4.03
2023-03-14T01:05:33.165Z,5.10
2023-03-14T01:07:59.711Z,2.80
2023-03-14T01:10:27.817Z,3.88
2023-03-14T01:12:54.420Z,3.80
2023-03-14T01:15:21.323Z,2.20
2023-03-14T01:17:47.907Z,3.10
2023-03-14T01:20:15.607Z,6.85
2023-03-14T01:22:43.227Z,2.08
2023-03-14T01:25:13.290Z,3.40
2023-03-14T01:27:39.825Z,2.35
2023-03-14T01:30:07.419Z,3.72
2023-03-14T01:32:33.986Z,2.60
2023-03-14T01:35:00.781Z,5.88
2023-03-14T01:37:27.463Z,3.20
2023-03-14T01:39:54.068Z,5.70
2023-03-14T01:42:20.763Z,4.53
2023-03-14T01:44:53.234Z,5.50
2023-03-14T01:47:19.928Z,7.43
2023-03-14T01:49:50.150Z,5.55
2023-03-14T01:52:22.839Z,6.57
2023-03-14T01:54:59.835Z,8.63
2023-03-14T01:57:33.125Z,10.55
2023-03-14T02:00:15.311Z,5.47
2023-03-14T02:02:56.427Z,6.70
2023-03-14T02:05:29.434Z,6.22
2023-03-14T02:08:03.096Z,5.57
2023-03-14T02:10:39.522Z,8.25
2023-03-14T02:13:07.662Z,3.00
2023-03-14T02:15:46.074Z,5.25
2023-03-14T02:18:32.897Z,3.25
2023-03-14T02:21:45.874Z,6.47
2023-03-14T02:24:28.275Z,6.72
2023-03-14T02:27:03.879Z,5.20
2023-03-14T02:29:33.473Z,8.80
2023-03-14T02:32:03.382Z,9.82
2023-03-14T02:34:31.108Z,6.32
2023-03-14T02:36:57.834Z,11.75
2023-03-14T02:39:32.931Z,9.20
2023-03-14T02:41:59.447Z,7.20
2023-03-14T02:44:26.093Z,7.47
2023-03-14T02:46:52.754Z,8.43
2023-03-14T02:49:19.428Z,5.40
2023-03-14T02:51:47.004Z,5.55
2023-03-14T02:54:16.320Z,4.80
2023-03-14T02:56:43.055Z,6.28
2023-03-14T02:59:12.620Z,6.97
2023-03-14T03:01:46.230Z,5.25
2023-03-14T03:04:12.730Z,6.13
2023-03-14T03:06:39.233Z,5.15
2023-03-14T03:09:05.807Z,6.82
2023-03-14T03:11:32.298Z,9.40
2023-03-14T03:13:58.901Z,12.93
2023-03-14T03:16:28.133Z,10.43
2023-03-14T03:18:54.659Z,8.30
2023-03-14T03:21:21.206Z,9.55
2023-03-14T03:23:47.678Z,10.55
2023-03-14T03:26:14.132Z,9.90
2023-03-14T03:28:40.596Z,8.73
2023-03-14T03:31:10.469Z,9.65
2023-03-14T03:33:38.546Z,8.10
2023-03-14T03:36:05.623Z,8.85
2023-03-14T03:38:36.266Z,12.27
2023-03-14T03:41:06.873Z,7.30
2023-03-14T03:43:33.566Z,8.52
2023-03-14T03:46:06.536Z,8.95
2023-03-14T03:51:03.404Z,10.77
2023-03-14T03:53:33.504Z,9.02
2023-03-14T03:56:04.254Z,10.93
2023-03-14T03:58:30.810Z,8.77
2023-03-14T04:00:57.344Z,9.95
2023-03-14T04:03:24.381Z,12.55
2023-03-14T04:06:05.930Z,10.57
2023-03-14T04:08:34.383Z,10.25
2023-03-14T04:11:02.732Z,8.55
2023-03-14T04:13:48.202Z,7.82
2023-03-14T04:16:21.521Z,9.02
2023-03-14T04:18:48.596Z,8.13
2023-03-14T04:21:16.204Z,7.47
2023-03-14T04:23:49.044Z,8.02
2023-03-14T04:26:17.121Z,7.88
2023-03-14T04:28:44.600Z,6.53
2023-03-14T04:31:13.951Z,8.02
2023-03-14T04:33:41.131Z,9.80
2023-03-14T04:36:09.306Z,6.25
2023-03-14T04:38:36.478Z,7.00
2023-03-14T04:41:04.178Z,8.15
2023-03-14T04:43:32.869Z,6.38
2023-03-14T04:46:04.527Z,4.88
2023-03-14T04:48:31.117Z,4.70
2023-03-14T04:50:59.053Z,3.33
2023-03-14T04:53:27.114Z,9.65
2023-03-14T04:55:56.614Z,3.38
2023-03-14T04:58:25.798Z,5.22
2023-03-14T05:00:53.976Z,6.65
2023-03-14T05:03:42.980Z,4.43
2023-03-14T05:06:28.186Z,7.78
2023-03-14T05:09:12.809Z,5.65
2023-03-14T05:12:09.523Z,7.63
2023-03-14T05:14:46.806Z,7.53
2023-03-14T05:17:14.102Z,6.13
2023-03-14T05:19:54.579Z,5.35
2023-03-14T05:22:32.449Z,8.43
2023-03-14T05:25:09.179Z,7.93
2023-03-14T05:28:07.959Z,5.70
2023-03-14T05:30:51.571Z,8.75
2023-03-14T05:33:29.371Z,7.30
2023-03-14T05:36:09.881Z,6.93
2023-03-14T05:38:55.033Z,3.85
2023-03-14T05:41:27.417Z,3.60
2023-03-14T05:44:14.295Z,4.10
2023-03-14T05:46:59.247Z,3.00
2023-03-14T05:49:45.558Z,3.10
2023-03-14T05:52:14.810Z,3.35
2023-03-14T05:54:56.079Z,2.40
2023-03-14T05:57:37.685Z,3.58
2023-03-14T06:00:21.765Z,3.85
2023-03-14T06:03:08.347Z,3.78
2023-03-14T06:05:40.515Z,6.18
2023-03-14T06:08:07.113Z,4.60
2023-03-14T06:10:33.697Z,7.03
2023-03-14T06:13:00.205Z,5.97
2023-03-14T06:15:26.869Z,4.78
2023-03-14T06:17:56.690Z,5.75
2023-03-14T06:20:23.657Z,5.40
2023-03-14T06:22:50.240Z,4.82
2023-03-14T06:25:17.185Z,7.72
2023-03-14T06:27:46.682Z,7.80
2023-03-14T06:30:13.961Z,9.05
2023-03-14T06:32:40.603Z,10.10
2023-03-14T06:35:10.657Z,7.00
2023-03-14T06:37:40.890Z,9.48
2023-03-14T06:40:08.745Z,7.43
2023-03-14T06:42:48.647Z,9.77
2023-03-14T06:45:17.051Z,8.25
2023-03-14T06:47:44.033Z,7.80
2023-03-14T06:50:11.685Z,7.65
2023-03-14T06:52:39.354Z,5.55
2023-03-14T06:55:06.392Z,7.28
2023-03-14T06:57:33.214Z,4.72
2023-03-14T07:00:00.237Z,7.03
2023-03-14T07:02:39.850Z,7.03
2023-03-14T07:05:16.133Z,7.03
2023-03-14T07:07:42.761Z,5.82
2023-03-14T07:10:09.904Z,5.57
2023-03-14T07:12:36.777Z,5.40
2023-03-14T07:17:55.944Z,9.55
2023-03-14T07:20:23.729Z,6.60
2023-03-14T07:22:51.136Z,11.27
2023-03-14T07:25:22.467Z,6.50
2023-03-14T07:27:49.231Z,12.55
2023-03-14T07:30:16.337Z,9.05
2023-03-14T07:32:43.160Z,8.82
2023-03-14T07:35:10.475Z,10.32
2023-03-14T07:37:39.626Z,6.78
2023-03-14T07:40:07.016Z,9.68
2023-03-14T07:42:35.316Z,8.88
2023-03-14T07:45:15.834Z,8.43
2023-03-14T07:47:42.395Z,9.98
2023-03-14T07:50:09.673Z,9.93
2023-03-14T07:52:36.168Z,5.93
2023-03-14T07:55:02.658Z,14.15
2023-03-14T07:57:29.160Z,13.32
2023-03-14T07:59:55.620Z,12.13
2023-03-14T08:02:22.136Z,17.15
2023-03-14T08:04:48.867Z,15.32
2023-03-14T08:07:15.496Z,13.93
2023-03-14T08:09:41.981Z,15.20
2023-03-14T08:12:08.904Z,22.30
2023-03-14T08:14:35.325Z,10.73
2023-03-14T08:17:01.803Z,18.35
2023-03-14T08:19:28.384Z,21.50
2023-03-14T08:21:54.878Z,17.13
2023-03-14T08:24:21.300Z,16.55
2023-03-14T08:26:47.797Z,18.73
2023-03-14T08:29:14.311Z,18.27
2023-03-14T08:31:40.855Z,22.83
2023-03-14T08:34:07.750Z,18.77
2023-03-14T08:36:34.718Z,18.75
2023-03-14T08:39:01.381Z,32.85
2023-03-14T08:41:27.966Z,24.67
2023-03-14T08:43:54.444Z,27.23
2023-03-14T08:46:21.016Z,35.28
2023-03-14T08:48:48.104Z,22.10
2023-03-14T08:51:15.105Z,23.73
2023-03-14T08:53:42.439Z,19.50
2023-03-14T08:56:09.445Z,28.27
2023-03-14T08:58:36.086Z,22.52
2023-03-14T09:01:02.647Z,18.73
2023-03-14T09:03:29.103Z,18.30
2023-03-14T09:05:55.573Z,20.90
2023-03-14T09:08:22.052Z,29.08
2023-03-14T09:10:48.555Z,21.35
2023-03-14T09:13:15.021Z,19.95
2023-03-14T09:15:41.475Z,18.20
2023-03-14T09:18:07.948Z,22.05
2023-03-14T09:20:34.453Z,26.63
2023-03-14T09:23:00.881Z,14.23
2023-03-14T09:25:27.364Z,18.58
2023-03-14T09:27:53.818Z,21.70
2023-03-14T09:30:20.295Z,29.30
2023-03-14T09:32:46.825Z,29.65
2023-03-14T09:35:13.313Z,22.92
2023-03-14T09:37:39.781Z,16.23
2023-03-14T09:40:08.607Z,22.95
2023-03-14T09:42:38.321Z,20.17
2023-03-14T09:45:07.780Z,17.60
2023-03-14T09:47:35.871Z,29.88
2023-03-14T09:50:04.010Z,14.43
2023-03-14T09:52:33.275Z,20.30
2023-03-14T09:55:04.605Z,20.52
2023-03-14T09:57:34.948Z,17.85
2023-03-14T10:00:11.941Z,21.90
2023-03-14T10:02:38.423Z,23.48
2023-03-14T10:05:15.826Z,15.80
2023-03-14T10:07:42.317Z,15.73
2023-03-14T10:10:17.136Z,22.20
2023-03-14T10:12:47.508Z,15.57
2023-03-14T10:15:23.335Z,26.08
2023-03-14T10:17:51.454Z,23.27
2023-03-14T10:20:35.004Z,21.75
2023-03-14T10:23:07.867Z,18.40
2023-03-14T10:25:37.179Z,17.25
2023-03-14T10:28:05.536Z,20.85
2023-03-14T10:30:40.039Z,26.77
2023-03-14T10:33:12.098Z,23.60
2023-03-14T10:35:38.747Z,24.70
2023-03-14T10:38:05.526Z,23.23
2023-03-14T10:40:34.961Z,17.77
2023-03-14T10:43:05.870Z,19.05
2023-03-14T10:45:33.873Z,10.65
2023-03-14T10:48:17.063Z,15.13
2023-03-14T10:50:56.804Z,23.20
2023-03-14T10:53:25.996Z,18.63
2023-03-14T10:55:53.897Z,18.27
2023-03-14T10:58:28.222Z,18.75
2023-03-14T11:01:24.118Z,20.63
2023-03-14T11:03:58.742Z,17.35
2023-03-14T11:06:40.286Z,13.73
2023-03-14T11:09:21.726Z,12.63
2023-03-14T11:11:48.971Z,18.40
2023-03-14T11:14:21.483Z,14.80
2023-03-14T11:17:11.075Z,16.00
2023-03-14T11:19:57.132Z,14.68
2023-03-14T11:22:48.664Z,15.30
2023-03-14T11:26:02.499Z,18.60
2023-03-14T11:28:39.493Z,16.70
2023-03-14T11:31:15.026Z,12.05
2023-03-14T11:33:57.231Z,11.05
2023-03-14T11:36:44.936Z,13.60
2023-03-14T11:39:19.706Z,14.13
2023-03-14T11:41:49.907Z,20.48
2023-03-14T11:44:33.639Z,12.05
2023-03-14T11:47:18.479Z,18.38
2023-03-14T11:49:51.610Z,15.65
2023-03-14T11:52:24.042Z,13.30
2023-03-14T11:55:23.942Z,15.63
2023-03-14T11:57:52.557Z,13.35
2023-03-14T12:00:22.121Z,13.98
2023-03-14T12:03:02.435Z,19.23
2023-03-14T12:05:37.722Z,20.13
2023-03-14T12:08:10.145Z,10.98
2023-03-14T12:10:50.526Z,17.65
2023-03-14T12:13:18.478Z,8.30
2023-03-14T12:16:07.594Z,12.18
2023-03-14T12:18:37.241Z,8.98
2023-03-14T12:21:06.424Z,15.25
2023-03-14T12:23:53.167Z,11.75
2023-03-14T12:26:25.946Z,15.48
2023-03-14T12:29:12.278Z,11.07
2023-03-14T12:31:47.591Z,10.77
2023-03-14T12:34:14.077Z,10.10
2023-03-14T12:36:52.724Z,11.23
2023-03-14T12:39:38.082Z,14.63
2023-03-14T12:42:13.885Z,10.55
2023-03-14T12:44:41.467Z,13.02
2023-03-14T12:47:20.207Z,13.93
2023-03-14T12:49:53.271Z,12.52
2023-03-14T12:52:51.948Z,14.65
2023-03-14T12:55:40.313Z,16.20
2023-03-14T12:58:45.383Z,17.13
2023-03-14T13:01:20.404Z,12.43
2023-03-14T13:03:48.757Z,10.18
2023-03-14T13:06:46.938Z,10.45
2023-03-14T13:09:33.341Z,10.32
2023-03-14T13:12:09.598Z,11.00
2023-03-14T13:14:41.650Z,11.60
2023-03-14T13:17:34.585Z,11.85
2023-03-14T13:20:06.028Z,12.27
2023-03-14T13:22:35.028Z,9.27
2023-03-14T13:25:05.664Z,8.23
2023-03-14T13:27:34.928Z,7.47
2023-03-14T13:30:40.607Z,12.80
2023-03-14T13:33:07.388Z,9.25
2023-03-14T13:35:47.006Z,7.18
2023-03-14T13:38:24.899Z,8.15
2023-03-14T13:40:54.917Z,11.52
2023-03-14T13:43:37.065Z,10.43
2023-03-14T13:46:23.989Z,7.05
2023-03-14T13:49:01.012Z,10.50
2023-03-14T13:51:28.186Z,8.02
2023-03-14T13:53:56.358Z,7.18
2023-03-14T13:56:26.082Z,8.05
2023-03-14T13:58:52.739Z,5.57
2023-03-14T14:01:25.447Z,8.38
2023-03-14T14:03:54.516Z,8.25
2023-03-14T14:06:25.790Z,6.97
2023-03-14T14:11:48.447Z,8.15
2023-03-14T14:14:35.604Z,8.40
2023-03-14T14:17:06.129Z,6.95
2023-03-14T14:19:34.715Z,10.40
2023-03-14T14:22:02.933Z,12.18
2023-03-14T14:24:32.357Z,10.43
2023-03-14T14:27:25.653Z,8.02
2023-03-14T14:30:05.085Z,8.27
2023-03-14T14:32:40.179Z,7.95
2023-03-14T14:35:34.059Z,6.30
2023-03-14T14:38:03.990Z,9.52
2023-03-14T14:40:37.203Z,10.30
2023-03-14T14:43:09.988Z,8.52
2023-03-14T14:45:37.365Z,5.07
2023-03-14T14:48:12.648Z,7.22
2023-03-14T14:51:02.897Z,7.40
2023-03-14T14:53:42.630Z,6.38
2023-03-14T14:56:21.566Z,6.15
2023-03-14T14:58:51.416Z,6.50
2023-03-14T15:01:33.208Z,6.07
2023-03-14T15:04:00.350Z,6.25
2023-03-14T15:06:38.339Z,5.65
2023-03-14T15:09:07.282Z,6.53
2023-03-14T15:11:33.942Z,7.78
2023-03-14T15:14:00.390Z,6.25
2023-03-14T15:16:31.680Z,5.30
2023-03-14T15:19:01.920Z,9.90
2023-03-14T15:21:29.911Z,8.15
2023-03-14T15:23:56.395Z,6.38
2023-03-14T15:26:25.713Z,7.47
2023-03-14T15:28:52.187Z,5.45
2023-03-14T15:31:20.180Z,4.65
2023-03-14T15:33:46.810Z,7.30
2023-03-14T15:36:29.310Z,5.90
2023-03-14T15:38:56.567Z,8.60
2023-03-14T15:41:23.956Z,10.15
2023-03-14T15:43:50.941Z,7.90
2023-03-14T15:46:17.841Z,6.53
2023-03-14T15:48:45.716Z,8.88
2023-03-14T15:51:12.463Z,7.30
2023-03-14T15:53:39.167Z,7.57
2023-03-14T15:56:07.611Z,10.95
2023-03-14T15:58:34.596Z,7.45
2023-03-14T16:01:02.742Z,6.88
2023-03-14T16:03:30.090Z,7.40
2023-03-14T16:05:56.568Z,8.65
2023-03-14T16:08:24.908Z,8.88
2023-03-14T16:10:51.381Z,6.68
2023-03-14T16:13:17.883Z,13.43
2023-03-14T16:15:53.805Z,8.30
2023-03-14T16:18:22.184Z,9.07
2023-03-14T16:20:56.439Z,8.88
2023-03-14T16:23:23.399Z,7.03
2023-03-14T16:25:50.377Z,6.10
2023-03-14T16:28:17.185Z,8.40
2023-03-14T16:30:43.639Z,8.93
2023-03-14T16:36:02.214Z,10.60
2023-03-14T16:38:31.732Z,9.10
2023-03-14T16:41:09.902Z,9.65
2023-03-14T16:43:36.434Z,11.98
2023-03-14T16:46:04.389Z,10.02
2023-03-14T16:48:31.067Z,9.13
2023-03-14T16:50:57.851Z,7.95
2023-03-14T16:53:25.063Z,9.80
2023-03-14T16:55:51.679Z,6.70
2023-03-14T16:58:18.223Z,6.15
2023-03-14T17:00:45.566Z,8.82
2023-03-14T17:03:12.200Z,8.57
2023-03-14T17:05:45.339Z,10.60
2023-03-14T17:08:11.844Z,6.47
2023-03-14T17:10:39.812Z,9.48
2023-03-14T17:13:06.462Z,9.65
2023-03-14T17:15:33.022Z,7.18
2023-03-14T17:17:59.517Z,7.93
2023-03-14T17:20:26.048Z,8.27
2023-03-14T17:22:52.580Z,5.15
2023-03-14T17:25:19.061Z,7.15
2023-03-14T17:27:46.306Z,8.80
2023-03-14T17:30:13.510Z,11.57
2023-03-14T17:32:40.333Z,8.10
2023-03-14T17:35:07.056Z,13.05
2023-03-14T17:37:33.551Z,9.75
2023-03-14T17:40:00.046Z,8.10
2023-03-14T17:42:26.747Z,11.02
2023-03-14T17:44:53.225Z,10.88
2023-03-14T17:47:19.751Z,10.15
2023-03-14T17:49:46.186Z,13.40
2023-03-14T17:52:12.942Z,12.23
2023-03-14T17:54:39.817Z,13.55
2023-03-14T17:57:06.467Z,14.45
2023-03-14T17:59:32.919Z,19.45
2023-03-14T18:01:59.455Z,13.07
2023-03-14T18:04:26.106Z,10.57
2023-03-14T18:06:52.659Z,14.20
2023-03-14T18:09:19.171Z,14.77
2023-03-14T18:11:46.248Z,10.73
2023-03-14T18:14:13.482Z,11.77
2023-03-14T18:16:39.943Z,10.15
2023-03-14T18:19:06.418Z,12.68
2023-03-14T18:21:32.910Z,14.73
2023-03-14T18:23:59.374Z,9.35
2023-03-14T18:26:25.822Z,12.93
2023-03-14T18:28:52.287Z,15.15
2023-03-14T18:31:20.108Z,14.02
2023-03-14T18:33:46.662Z,15.65
2023-03-14T18:36:13.242Z,11.43
2023-03-14T18:38:40.069Z,11.48
2023-03-14T18:41:07.557Z,18.80
2023-03-14T18:43:34.960Z,18.88
2023-03-14T18:46:01.973Z,15.32
2023-03-14T18:48:29.725Z,13.20
2023-03-14T18:50:58.097Z,17.35
2023-03-14T18:53:24.670Z,11.35
2023-03-14T18:55:54.576Z,15.10
2023-03-14T18:58:21.109Z,8.63
2023-03-14T19:00:47.606Z,15.25
2023-03-14T19:03:14.090Z,12.18
2023-03-14T19:05:43.785Z,15.63
2023-03-14T19:08:10.290Z,12.50
2023-03-14T19:10:36.730Z,11.55
2023-03-14T19:13:03.220Z,9.98
2023-03-14T19:15:29.767Z,10.95
2023-03-14T19:17:56.241Z,8.82
2023-03-14T19:20:22.687Z,15.32
2023-03-14T19:22:49.156Z,6.90
2023-03-14T19:25:15.606Z,10.88
2023-03-14T19:27:42.086Z,14.10
2023-03-14T19:30:09.047Z,7.57
2023-03-14T19:32:35.569Z,5.43
2023-03-14T19:35:02.125Z,9.07
2023-03-14T19:37:28.679Z,10.82
2023-03-14T19:39:55.103Z,5.40
2023-03-14T19:42:21.560Z,6.90
2023-03-14T19:44:48.011Z,9.70
2023-03-14T19:47:14.495Z,7.38
2023-03-14T19:49:41.001Z,10.57
2023-03-14T19:52:07.462Z,5.20
2023-03-14T19:54:33.902Z,5.68
2023-03-14T19:57:00.406Z,6.68
2023-03-14T19:59:27.049Z,6.35
2023-03-14T20:01:53.489Z,7.43
2023-03-14T20:04:20.039Z,6.00
2023-03-14T20:06:46.592Z,7.25
2023-03-14T20:09:13.046Z,8.82
2023-03-14T20:11:39.575Z,7.65
2023-03-14T20:14:10.226Z,8.55
2023-03-14T20:16:37.808Z,11.10
2023-03-14T20:19:09.219Z,8.18
2023-03-14T20:21:36.020Z,9.02
2023-03-14T20:24:04.179Z,9.07
2023-03-14T20:26:31.406Z,10.07
2023-03-14T20:28:57.914Z,6.53
2023-03-14T20:31:24.425Z,7.25
2023-03-14T20:33:51.621Z,5.50
2023-03-14T20:36:18.272Z,8.02
2023-03-14T20:38:44.727Z,11.27
2023-03-14T20:41:11.216Z,8.60
2023-03-14T20:43:37.762Z,7.70
2023-03-14T20:46:04.993Z,8.00
2023-03-14T20:48:32.202Z,6.93
2023-03-14T20:50:59.062Z,5.60
2023-03-14T20:53:25.703Z,8.18
2023-03-14T20:55:55.756Z,4.55
2023-03-14T20:58:22.302Z,7.13
2023-03-14T21:00:50.495Z,6.30
2023-03-14T21:03:17.906Z,6.07
2023-03-14T21:05:46.838Z,6.88
2023-03-14T21:08:18.228Z,9.50
2023-03-14T21:10:48.590Z,4.13
2023-03-14T21:13:15.254Z,6.10
2023-03-14T21:15:41.780Z,7.15
2023-03-14T21:18:08.694Z,7.85
2023-03-14T21:20:37.355Z,5.80
2023-03-14T21:23:04.541Z,4.45
2023-03-14T21:25:32.296Z,5.93
2023-03-14T21:27:59.018Z,6.43
2023-03-14T21:30:25.866Z,5.60
2023-03-14T21:32:52.388Z,5.07
2023-03-14T21:35:18.939Z,7.13
2023-03-14T21:37:45.489Z,8.13
2023-03-14T21:40:12.878Z,7.63
2023-03-14T21:42:39.554Z,9.02
2023-03-14T21:45:09.884Z,7.28
2023-03-14T21:47:36.363Z,13.63
2023-03-14T21:50:02.895Z,11.68
2023-03-14T21:52:29.410Z,7.00
2023-03-14T21:54:55.859Z,10.30
2023-03-14T21:57:22.540Z,8.85
2023-03-14T21:59:48.998Z,10.00
2023-03-14T22:02:19.082Z,7.90
2023-03-14T22:04:45.721Z,5.85
2023-03-14T22:07:16.721Z,10.80
2023-03-14T22:09:45.693Z,6.80
2023-03-14T22:12:13.278Z,7.53
2023-03-14T22:14:39.775Z,8.40
2023-03-14T22:17:06.355Z,7.35
2023-03-14T22:19:32.883Z,5.38
2023-03-14T22:21:59.415Z,7.25
2023-03-14T22:24:26.097Z,5.35
2023-03-14T22:26:53.703Z,7.90
2023-03-14T22:29:21.471Z,5.03
2023-03-14T22:31:48.217Z,6.40
2023-03-14T22:34:15.050Z,7.80
2023-03-14T22:36:41.975Z,9.27
2023-03-14T22:39:08.871Z,6.22
2023-03-14T22:41:35.861Z,9.43
2023-03-14T22:44:02.317Z,10.57
2023-03-14T22:46:28.758Z,8.40
2023-03-14T22:48:55.272Z,8.40
2023-03-14T22:51:21.743Z,9.45
2023-03-14T22:53:48.990Z,8.18
2023-03-14T22:56:15.446Z,5.65
2023-03-14T22:58:41.931Z,4.53
2023-03-14T23:01:08.412Z,5.85
2023-03-14T23:03:34.910Z,4.97
2023-03-14T23:06:01.417Z,5.93
2023-03-14T23:08:27.906Z,5.40
2023-03-14T23:11:02.142Z,5.15
2023-03-14T23:13:29.633Z,4.68
2023-03-14T23:15:56.105Z,5.55
2023-03-14T23:18:23.180Z,4.50
2023-03-14T23:20:49.648Z,5.22
2023-03-14T23:23:16.090Z,5.93
2023-03-14T23:25:52.887Z,5.38
2023-03-14T23:28:20.286Z,4.60
2023-03-14T23:30:46.773Z,7.35
2023-03-14T23:33:13.325Z,4.68
2023-03-14T23:35:39.802Z,4.55
2023-03-14T23:38:06.264Z,8.65
2023-03-14T23:40:32.744Z,4.60
2023-03-14T23:42:59.178Z,3.90
2023-03-14T23:45:25.646Z,16.50
2023-03-14T23:47:52.058Z,5.63
2023-03-14T23:50:18.779Z,4.32
2023-03-14T23:52:45.227Z,7.75
2023-03-14T23:55:11.723Z,5.65
2023-03-14T23:57:38.200Z,4.75
